Aviation Digital Data Service (ADDS)

Output produced by METARs form (0548 UTC 21 January 2019)
found at http://www.aviationweather.gov/metar/data/
 
Forecast for: ZUUU (CHENGDU , CN)
Text: TAF ZUUU 210205Z 2106/2206 20003MPS 5000 BR SCT050 TX12/2107Z TN00/2123Z
Forecast period: 0600 to 2200 UTC 21 January 2019
Forecast type: FROM: standard forecast or significant change
Winds: from the SSW (200 degrees) at 7 MPH (6 knots; 3.1 m/s)
Visibility: 3 miles (5 km)
Ceiling: at least 12,000 feet AGL
Clouds: scattered clouds at 5000 feet AGL
Weather: BR  (mist)
Text: BECMG 2122/2123 2300
Forecast period: 2200 UTC 21 January 2019 to 0100 UTC 22 January 2019
Forecast type: BECOMING: Conditions expected to become as follows by 2300 UTC 21 January 2019
Winds: from the SSW (200 degrees) at 7 MPH (6 knots; 3.1 m/s)
Visibility: 1.43 miles (2.30 km)
Ceiling: at least 12,000 feet AGL
Clouds: scattered clouds at 5000 feet AGL
Weather: BR  (mist)
Text: BECMG 2201/2202 5000
Forecast period: 0100 to 0600 UTC 22 January 2019
Forecast type: BECOMING: Conditions expected to become as follows by 0200 UTC 22 January 2019
Winds: from the SSW (200 degrees) at 7 MPH (6 knots; 3.1 m/s)
Visibility: 3 miles (5 km)
Ceiling: at least 12,000 feet AGL
Clouds: scattered clouds at 5000 feet AGL
Weather: BR  (mist)